sensor_id;sensor_type;location;lat;lon;timestamp;P1;durP1;ratioP1;P2;durP2;ratioP2
78716;SDS011;68045;50.042;14.432;2023-08-08T00:03:27;6.07;;;2.60;;
78716;SDS011;68045;50.042;14.432;2023-08-08T00:07:28;4.32;;;2.55;;
78716;SDS011;68045;50.042;14.432;2023-08-08T00:11:31;3.97;;;2.35;;
78716;SDS011;68045;50.042;14.432;2023-08-08T00:15:33;3.33;;;1.98;;
78716;SDS011;68045;50.042;14.432;2023-08-08T00:19:33;11.02;;;2.67;;
78716;SDS011;68045;50.042;14.432;2023-08-08T00:23:34;5.45;;;2.50;;
78716;SDS011;68045;50.042;14.432;2023-08-08T00:27:35;4.53;;;2.20;;
78716;SDS011;68045;50.042;14.432;2023-08-08T00:31:42;7.00;;;2.35;;
78716;SDS011;68045;50.042;14.432;2023-08-08T00:35:42;4.82;;;2.10;;
78716;SDS011;68045;50.042;14.432;2023-08-08T00:39:44;6.35;;;2.65;;
78716;SDS011;68045;50.042;14.432;2023-08-08T00:43:46;4.57;;;2.35;;
78716;SDS011;68045;50.042;14.432;2023-08-08T00:47:47;6.95;;;2.90;;
78716;SDS011;68045;50.042;14.432;2023-08-08T00:51:48;4.18;;;2.70;;
78716;SDS011;68045;50.042;14.432;2023-08-08T00:55:52;3.50;;;2.15;;
78716;SDS011;68045;50.042;14.432;2023-08-08T00:59:54;5.47;;;2.58;;
78716;SDS011;68045;50.042;14.432;2023-08-08T01:03:55;4.53;;;2.38;;
78716;SDS011;68045;50.042;14.432;2023-08-08T01:08:05;5.53;;;2.45;;
78716;SDS011;68045;50.042;14.432;2023-08-08T01:12:08;4.40;;;2.55;;
78716;SDS011;68045;50.042;14.432;2023-08-08T01:16:11;6.53;;;2.53;;
78716;SDS011;68045;50.042;14.432;2023-08-08T01:20:13;4.38;;;2.03;;
78716;SDS011;68045;50.042;14.432;2023-08-08T01:24:18;4.03;;;2.50;;
78716;SDS011;68045;50.042;14.432;2023-08-08T01:28:21;7.10;;;2.55;;
78716;SDS011;68045;50.042;14.432;2023-08-08T01:32:23;4.75;;;2.90;;
78716;SDS011;68045;50.042;14.432;2023-08-08T01:36:45;3.15;;;2.03;;
78716;SDS011;68045;50.042;14.432;2023-08-08T01:40:50;4.68;;;2.45;;
78716;SDS011;68045;50.042;14.432;2023-08-08T01:44:50;4.88;;;2.60;;
78716;SDS011;68045;50.042;14.432;2023-08-08T01:48:53;3.47;;;2.30;;
78716;SDS011;68045;50.042;14.432;2023-08-08T01:52:56;4.90;;;2.40;;
78716;SDS011;68045;50.042;14.432;2023-08-08T01:56:56;4.85;;;2.65;;
78716;SDS011;68045;50.042;14.432;2023-08-08T02:00:57;8.90;;;2.78;;
78716;SDS011;68045;50.042;14.432;2023-08-08T02:04:58;5.30;;;2.58;;
78716;SDS011;68045;50.042;14.432;2023-08-08T02:08:59;5.13;;;2.53;;
78716;SDS011;68045;50.042;14.432;2023-08-08T02:13:00;3.70;;;2.40;;
78716;SDS011;68045;50.042;14.432;2023-08-08T02:17:01;5.57;;;2.67;;
78716;SDS011;68045;50.042;14.432;2023-08-08T02:21:01;3.28;;;2.13;;
78716;SDS011;68045;50.042;14.432;2023-08-08T02:25:03;4.50;;;2.80;;
78716;SDS011;68045;50.042;14.432;2023-08-08T02:29:04;2.88;;;1.98;;
78716;SDS011;68045;50.042;14.432;2023-08-08T02:33:05;4.38;;;2.28;;
78716;SDS011;68045;50.042;14.432;2023-08-08T02:37:06;5.15;;;2.10;;
78716;SDS011;68045;50.042;14.432;2023-08-08T02:41:07;4.70;;;2.67;;
78716;SDS011;68045;50.042;14.432;2023-08-08T02:45:08;5.88;;;2.65;;
78716;SDS011;68045;50.042;14.432;2023-08-08T02:49:09;3.97;;;2.45;;
78716;SDS011;68045;50.042;14.432;2023-08-08T02:53:10;3.08;;;1.92;;
78716;SDS011;68045;50.042;14.432;2023-08-08T02:57:17;3.83;;;2.35;;
78716;SDS011;68045;50.042;14.432;2023-08-08T03:01:19;4.68;;;2.30;;
78716;SDS011;68045;50.042;14.432;2023-08-08T03:05:21;2.63;;;1.50;;
78716;SDS011;68045;50.042;14.432;2023-08-08T03:09:23;5.07;;;2.22;;
78716;SDS011;68045;50.042;14.432;2023-08-08T03:13:24;4.82;;;2.75;;
78716;SDS011;68045;50.042;14.432;2023-08-08T03:21:28;4.38;;;2.25;;
78716;SDS011;68045;50.042;14.432;2023-08-08T03:25:29;6.15;;;2.38;;
78716;SDS011;68045;50.042;14.432;2023-08-08T03:29:31;4.40;;;2.22;;
78716;SDS011;68045;50.042;14.432;2023-08-08T03:33:33;5.75;;;2.60;;
78716;SDS011;68045;50.042;14.432;2023-08-08T03:37:36;3.97;;;2.30;;
78716;SDS011;68045;50.042;14.432;2023-08-08T03:41:37;6.65;;;2.60;;
78716;SDS011;68045;50.042;14.432;2023-08-08T03:45:38;3.38;;;2.00;;
78716;SDS011;68045;50.042;14.432;2023-08-08T03:49:39;4.93;;;2.53;;
78716;SDS011;68045;50.042;14.432;2023-08-08T03:53:40;4.60;;;2.33;;
78716;SDS011;68045;50.042;14.432;2023-08-08T03:57:41;6.97;;;2.63;;
78716;SDS011;68045;50.042;14.432;2023-08-08T04:01:43;3.13;;;1.92;;
78716;SDS011;68045;50.042;14.432;2023-08-08T04:05:45;3.58;;;2.33;;
78716;SDS011;68045;50.042;14.432;2023-08-08T04:09:47;4.15;;;2.55;;
78716;SDS011;68045;50.042;14.432;2023-08-08T04:13:48;2.92;;;2.10;;
78716;SDS011;68045;50.042;14.432;2023-08-08T04:17:49;8.68;;;2.70;;
78716;SDS011;68045;50.042;14.432;2023-08-08T04:21:50;5.47;;;2.55;;
78716;SDS011;68045;50.042;14.432;2023-08-08T04:25:51;4.38;;;2.42;;
78716;SDS011;68045;50.042;14.432;2023-08-08T04:29:53;4.25;;;2.58;;
78716;SDS011;68045;50.042;14.432;2023-08-08T04:33:53;4.07;;;2.50;;
78716;SDS011;68045;50.042;14.432;2023-08-08T04:38:00;6.13;;;2.63;;
78716;SDS011;68045;50.042;14.432;2023-08-08T04:42:01;3.92;;;2.50;;
78716;SDS011;68045;50.042;14.432;2023-08-08T04:46:03;4.13;;;2.40;;
78716;SDS011;68045;50.042;14.432;2023-08-08T04:50:03;4.55;;;2.10;;
78716;SDS011;68045;50.042;14.432;2023-08-08T04:54:05;5.05;;;2.70;;
78716;SDS011;68045;50.042;14.432;2023-08-08T04:58:05;7.50;;;2.47;;
78716;SDS011;68045;50.042;14.432;2023-08-08T05:02:06;3.55;;;2.38;;
78716;SDS011;68045;50.042;14.432;2023-08-08T05:06:07;3.55;;;1.83;;
78716;SDS011;68045;50.042;14.432;2023-08-08T05:10:08;3.97;;;2.28;;
78716;SDS011;68045;50.042;14.432;2023-08-08T05:14:09;3.85;;;2.50;;
78716;SDS011;68045;50.042;14.432;2023-08-08T05:18:10;6.93;;;2.63;;
78716;SDS011;68045;50.042;14.432;2023-08-08T05:22:11;4.63;;;2.70;;
78716;SDS011;68045;50.042;14.432;2023-08-08T05:26:12;4.68;;;2.50;;
78716;SDS011;68045;50.042;14.432;2023-08-08T05:30:12;5.47;;;2.88;;
78716;SDS011;68045;50.042;14.432;2023-08-08T05:34:13;4.30;;;2.95;;
78716;SDS011;68045;50.042;14.432;2023-08-08T05:38:14;4.38;;;2.80;;
78716;SDS011;68045;50.042;14.432;2023-08-08T05:42:15;4.90;;;2.80;;
78716;SDS011;68045;50.042;14.432;2023-08-08T05:46:16;4.07;;;2.85;;
78716;SDS011;68045;50.042;14.432;2023-08-08T05:50:17;4.18;;;2.55;;
78716;SDS011;68045;50.042;14.432;2023-08-08T05:54:18;5.22;;;2.70;;
78716;SDS011;68045;50.042;14.432;2023-08-08T05:58:19;3.08;;;2.15;;
78716;SDS011;68045;50.042;14.432;2023-08-08T06:02:20;4.53;;;2.70;;
78716;SDS011;68045;50.042;14.432;2023-08-08T06:06:20;5.35;;;3.20;;
78716;SDS011;68045;50.042;14.432;2023-08-08T06:10:22;3.83;;;2.60;;
78716;SDS011;68045;50.042;14.432;2023-08-08T06:14:23;4.68;;;2.60;;
78716;SDS011;68045;50.042;14.432;2023-08-08T06:18:23;3.55;;;2.15;;
78716;SDS011;68045;50.042;14.432;2023-08-08T06:22:24;5.93;;;2.90;;
78716;SDS011;68045;50.042;14.432;2023-08-08T06:26:25;5.30;;;2.92;;
78716;SDS011;68045;50.042;14.432;2023-08-08T06:30:26;6.20;;;2.72;;
78716;SDS011;68045;50.042;14.432;2023-08-08T06:34:27;5.03;;;3.00;;
78716;SDS011;68045;50.042;14.432;2023-08-08T06:38:28;3.90;;;2.45;;
78716;SDS011;68045;50.042;14.432;2023-08-08T06:42:29;4.57;;;3.13;;
78716;SDS011;68045;50.042;14.432;2023-08-08T06:46:34;4.28;;;2.83;;
78716;SDS011;68045;50.042;14.432;2023-08-08T06:50:35;5.43;;;3.08;;
78716;SDS011;68045;50.042;14.432;2023-08-08T06:54:36;4.70;;;3.17;;
78716;SDS011;68045;50.042;14.432;2023-08-08T06:58:37;6.85;;;2.67;;
78716;SDS011;68045;50.042;14.432;2023-08-08T07:02:38;6.43;;;2.67;;
78716;SDS011;68045;50.042;14.432;2023-08-08T07:06:40;10.45;;;3.55;;
78716;SDS011;68045;50.042;14.432;2023-08-08T07:10:41;3.70;;;2.65;;
78716;SDS011;68045;50.042;14.432;2023-08-08T07:14:42;4.15;;;2.45;;
78716;SDS011;68045;50.042;14.432;2023-08-08T07:18:42;6.13;;;2.95;;
78716;SDS011;68045;50.042;14.432;2023-08-08T07:22:43;3.58;;;2.45;;
78716;SDS011;68045;50.042;14.432;2023-08-08T07:26:44;6.60;;;3.00;;
78716;SDS011;68045;50.042;14.432;2023-08-08T07:30:45;5.68;;;2.75;;
78716;SDS011;68045;50.042;14.432;2023-08-08T07:34:46;5.25;;;2.90;;
78716;SDS011;68045;50.042;14.432;2023-08-08T07:38:47;7.40;;;2.72;;
78716;SDS011;68045;50.042;14.432;2023-08-08T07:42:49;3.97;;;2.45;;
78716;SDS011;68045;50.042;14.432;2023-08-08T07:46:50;3.70;;;2.70;;
78716;SDS011;68045;50.042;14.432;2023-08-08T07:50:51;5.45;;;2.90;;
78716;SDS011;68045;50.042;14.432;2023-08-08T07:54:51;5.25;;;2.95;;
78716;SDS011;68045;50.042;14.432;2023-08-08T07:58:52;4.47;;;2.90;;
78716;SDS011;68045;50.042;14.432;2023-08-08T08:02:54;3.88;;;2.92;;
78716;SDS011;68045;50.042;14.432;2023-08-08T08:06:55;4.38;;;2.70;;
78716;SDS011;68045;50.042;14.432;2023-08-08T08:10:55;5.40;;;3.72;;
78716;SDS011;68045;50.042;14.432;2023-08-08T08:14:56;3.72;;;2.50;;
78716;SDS011;68045;50.042;14.432;2023-08-08T08:18:57;4.47;;;2.53;;
78716;SDS011;68045;50.042;14.432;2023-08-08T08:22:58;6.40;;;2.55;;
78716;SDS011;68045;50.042;14.432;2023-08-08T08:26:59;3.55;;;2.38;;
78716;SDS011;68045;50.042;14.432;2023-08-08T08:31:04;3.35;;;2.35;;
78716;SDS011;68045;50.042;14.432;2023-08-08T08:35:05;3.33;;;2.30;;
78716;SDS011;68045;50.042;14.432;2023-08-08T08:39:08;3.17;;;2.35;;
78716;SDS011;68045;50.042;14.432;2023-08-08T08:43:09;3.42;;;2.10;;
78716;SDS011;68045;50.042;14.432;2023-08-08T08:47:11;5.70;;;2.63;;
78716;SDS011;68045;50.042;14.432;2023-08-08T08:51:13;4.10;;;2.63;;
78716;SDS011;68045;50.042;14.432;2023-08-08T08:55:16;3.20;;;2.20;;
78716;SDS011;68045;50.042;14.432;2023-08-08T08:59:17;3.72;;;2.47;;
78716;SDS011;68045;50.042;14.432;2023-08-08T09:03:17;3.08;;;2.17;;
78716;SDS011;68045;50.042;14.432;2023-08-08T09:07:20;4.38;;;2.20;;
78716;SDS011;68045;50.042;14.432;2023-08-08T09:11:26;2.85;;;2.08;;
78716;SDS011;68045;50.042;14.432;2023-08-08T09:15:33;6.60;;;1.95;;
78716;SDS011;68045;50.042;14.432;2023-08-08T09:19:35;3.38;;;2.08;;
78716;SDS011;68045;50.042;14.432;2023-08-08T09:23:36;3.22;;;2.33;;
78716;SDS011;68045;50.042;14.432;2023-08-08T09:27:40;3.97;;;2.20;;
78716;SDS011;68045;50.042;14.432;2023-08-08T09:31:42;3.53;;;2.00;;
78716;SDS011;68045;50.042;14.432;2023-08-08T09:35:43;4.20;;;2.30;;
78716;SDS011;68045;50.042;14.432;2023-08-08T09:39:44;3.53;;;2.00;;
78716;SDS011;68045;50.042;14.432;2023-08-08T09:43:45;3.72;;;1.95;;
78716;SDS011;68045;50.042;14.432;2023-08-08T09:47:49;3.28;;;2.33;;
78716;SDS011;68045;50.042;14.432;2023-08-08T09:51:51;7.93;;;2.20;;
78716;SDS011;68045;50.042;14.432;2023-08-08T09:55:53;3.55;;;2.00;;
78716;SDS011;68045;50.042;14.432;2023-08-08T09:59:55;3.38;;;2.80;;
78716;SDS011;68045;50.042;14.432;2023-08-08T10:03:56;5.65;;;2.42;;
78716;SDS011;68045;50.042;14.432;2023-08-08T10:07:58;2.78;;;2.00;;
78716;SDS011;68045;50.042;14.432;2023-08-08T10:11:59;2.70;;;1.73;;
78716;SDS011;68045;50.042;14.432;2023-08-08T10:16:03;3.53;;;2.10;;
78716;SDS011;68045;50.042;14.432;2023-08-08T10:20:08;3.25;;;1.90;;
78716;SDS011;68045;50.042;14.432;2023-08-08T10:24:13;3.10;;;1.98;;
78716;SDS011;68045;50.042;14.432;2023-08-08T10:28:21;3.67;;;1.90;;
78716;SDS011;68045;50.042;14.432;2023-08-08T10:32:26;4.20;;;2.08;;
78716;SDS011;68045;50.042;14.432;2023-08-08T10:36:42;4.88;;;2.00;;
78716;SDS011;68045;50.042;14.432;2023-08-08T10:40:54;3.50;;;1.88;;
78716;SDS011;68045;50.042;14.432;2023-08-08T10:44:58;3.53;;;2.10;;
78716;SDS011;68045;50.042;14.432;2023-08-08T10:49:00;2.75;;;1.60;;
78716;SDS011;68045;50.042;14.432;2023-08-08T10:53:02;3.13;;;2.00;;
78716;SDS011;68045;50.042;14.432;2023-08-08T10:57:03;3.15;;;1.95;;
78716;SDS011;68045;50.042;14.432;2023-08-08T11:01:05;2.25;;;1.48;;
78716;SDS011;68045;50.042;14.432;2023-08-08T11:05:09;2.60;;;1.80;;
78716;SDS011;68045;50.042;14.432;2023-08-08T11:09:10;8.52;;;2.22;;
78716;SDS011;68045;50.042;14.432;2023-08-08T11:13:11;4.70;;;2.20;;
78716;SDS011;68045;50.042;14.432;2023-08-08T11:17:12;3.42;;;2.10;;
78716;SDS011;68045;50.042;14.432;2023-08-08T11:21:14;2.50;;;1.80;;
78716;SDS011;68045;50.042;14.432;2023-08-08T11:25:15;2.47;;;1.77;;
78716;SDS011;68045;50.042;14.432;2023-08-08T11:29:16;4.43;;;2.00;;
78716;SDS011;68045;50.042;14.432;2023-08-08T11:33:17;3.13;;;1.75;;
78716;SDS011;68045;50.042;14.432;2023-08-08T11:37:18;5.15;;;2.30;;
78716;SDS011;68045;50.042;14.432;2023-08-08T11:41:22;3.97;;;1.88;;
78716;SDS011;68045;50.042;14.432;2023-08-08T11:45:24;3.88;;;1.70;;
78716;SDS011;68045;50.042;14.432;2023-08-08T11:49:25;2.72;;;1.63;;
78716;SDS011;68045;50.042;14.432;2023-08-08T11:53:26;3.40;;;1.60;;
78716;SDS011;68045;50.042;14.432;2023-08-08T11:57:27;2.90;;;1.73;;
78716;SDS011;68045;50.042;14.432;2023-08-08T12:01:30;2.80;;;1.70;;
78716;SDS011;68045;50.042;14.432;2023-08-08T12:05:36;3.08;;;1.73;;
78716;SDS011;68045;50.042;14.432;2023-08-08T12:09:38;5.30;;;2.10;;
78716;SDS011;68045;50.042;14.432;2023-08-08T12:13:40;2.35;;;1.33;;
78716;SDS011;68045;50.042;14.432;2023-08-08T12:17:42;4.22;;;1.98;;
78716;SDS011;68045;50.042;14.432;2023-08-08T12:21:43;3.20;;;1.67;;
78716;SDS011;68045;50.042;14.432;2023-08-08T12:25:44;3.83;;;1.70;;
78716;SDS011;68045;50.042;14.432;2023-08-08T12:29:46;2.85;;;1.70;;
78716;SDS011;68045;50.042;14.432;2023-08-08T12:33:47;3.25;;;1.42;;
78716;SDS011;68045;50.042;14.432;2023-08-08T12:37:49;3.42;;;1.90;;
78716;SDS011;68045;50.042;14.432;2023-08-08T12:41:50;3.28;;;1.58;;
78716;SDS011;68045;50.042;14.432;2023-08-08T12:45:50;2.70;;;1.70;;
78716;SDS011;68045;50.042;14.432;2023-08-08T12:49:51;2.55;;;1.80;;
78716;SDS011;68045;50.042;14.432;2023-08-08T12:53:52;2.72;;;1.73;;
78716;SDS011;68045;50.042;14.432;2023-08-08T12:57:53;2.80;;;1.90;;
78716;SDS011;68045;50.042;14.432;2023-08-08T13:01:54;2.30;;;1.58;;
78716;SDS011;68045;50.042;14.432;2023-08-08T13:05:56;4.95;;;1.70;;
78716;SDS011;68045;50.042;14.432;2023-08-08T13:09:56;7.22;;;1.95;;
78716;SDS011;68045;50.042;14.432;2023-08-08T13:13:57;4.22;;;1.73;;
78716;SDS011;68045;50.042;14.432;2023-08-08T13:17:58;3.17;;;1.70;;
78716;SDS011;68045;50.042;14.432;2023-08-08T13:21:59;3.25;;;1.75;;
78716;SDS011;68045;50.042;14.432;2023-08-08T13:26:00;2.70;;;1.58;;
78716;SDS011;68045;50.042;14.432;2023-08-08T13:30:01;2.83;;;2.05;;
78716;SDS011;68045;50.042;14.432;2023-08-08T13:34:02;3.13;;;1.73;;
78716;SDS011;68045;50.042;14.432;2023-08-08T13:38:03;2.90;;;1.83;;
78716;SDS011;68045;50.042;14.432;2023-08-08T13:42:04;2.70;;;1.80;;
78716;SDS011;68045;50.042;14.432;2023-08-08T13:46:05;2.28;;;1.45;;
78716;SDS011;68045;50.042;14.432;2023-08-08T13:50:10;3.13;;;1.65;;
78716;SDS011;68045;50.042;14.432;2023-08-08T13:54:11;2.65;;;1.63;;
78716;SDS011;68045;50.042;14.432;2023-08-08T13:58:12;3.28;;;1.85;;
78716;SDS011;68045;50.042;14.432;2023-08-08T14:02:12;3.38;;;1.90;;
78716;SDS011;68045;50.042;14.432;2023-08-08T14:06:13;2.30;;;1.60;;
78716;SDS011;68045;50.042;14.432;2023-08-08T14:10:14;3.17;;;1.60;;
78716;SDS011;68045;50.042;14.432;2023-08-08T14:14:15;2.55;;;1.75;;
78716;SDS011;68045;50.042;14.432;2023-08-08T14:18:16;3.80;;;1.90;;
78716;SDS011;68045;50.042;14.432;2023-08-08T14:22:17;5.53;;;1.88;;
78716;SDS011;68045;50.042;14.432;2023-08-08T14:26:18;3.05;;;1.50;;
78716;SDS011;68045;50.042;14.432;2023-08-08T14:30:19;2.83;;;1.48;;
78716;SDS011;68045;50.042;14.432;2023-08-08T14:34:31;2.58;;;1.80;;
78716;SDS011;68045;50.042;14.432;2023-08-08T14:38:34;3.55;;;1.63;;
78716;SDS011;68045;50.042;14.432;2023-08-08T14:42:36;4.40;;;1.80;;
78716;SDS011;68045;50.042;14.432;2023-08-08T14:46:37;5.07;;;2.10;;
78716;SDS011;68045;50.042;14.432;2023-08-08T14:50:38;3.60;;;1.88;;
78716;SDS011;68045;50.042;14.432;2023-08-08T14:54:39;3.25;;;1.90;;
78716;SDS011;68045;50.042;14.432;2023-08-08T14:58:40;4.47;;;1.80;;
78716;SDS011;68045;50.042;14.432;2023-08-08T15:02:41;3.67;;;1.55;;
78716;SDS011;68045;50.042;14.432;2023-08-08T15:06:42;3.20;;;1.80;;
78716;SDS011;68045;50.042;14.432;2023-08-08T15:10:43;3.10;;;1.65;;
78716;SDS011;68045;50.042;14.432;2023-08-08T15:14:43;2.55;;;1.60;;
78716;SDS011;68045;50.042;14.432;2023-08-08T15:18:44;3.45;;;1.90;;
78716;SDS011;68045;50.042;14.432;2023-08-08T15:22:45;2.42;;;1.70;;
78716;SDS011;68045;50.042;14.432;2023-08-08T15:26:46;3.10;;;1.45;;
78716;SDS011;68045;50.042;14.432;2023-08-08T15:34:49;4.00;;;1.73;;
78716;SDS011;68045;50.042;14.432;2023-08-08T15:38:49;4.25;;;1.90;;
78716;SDS011;68045;50.042;14.432;2023-08-08T15:42:51;2.50;;;1.60;;
78716;SDS011;68045;50.042;14.432;2023-08-08T15:46:52;3.22;;;1.70;;
78716;SDS011;68045;50.042;14.432;2023-08-08T15:50:53;2.30;;;1.60;;
78716;SDS011;68045;50.042;14.432;2023-08-08T15:54:54;3.00;;;1.80;;
78716;SDS011;68045;50.042;14.432;2023-08-08T15:58:55;2.50;;;1.70;;
78716;SDS011;68045;50.042;14.432;2023-08-08T16:02:58;6.53;;;1.98;;
78716;SDS011;68045;50.042;14.432;2023-08-08T16:06:59;3.65;;;1.60;;
78716;SDS011;68045;50.042;14.432;2023-08-08T16:11:02;3.58;;;1.73;;
78716;SDS011;68045;50.042;14.432;2023-08-08T16:15:03;3.70;;;1.58;;
78716;SDS011;68045;50.042;14.432;2023-08-08T16:19:05;3.17;;;1.70;;
78716;SDS011;68045;50.042;14.432;2023-08-08T16:23:06;3.35;;;2.10;;
78716;SDS011;68045;50.042;14.432;2023-08-08T16:27:07;3.13;;;1.70;;
78716;SDS011;68045;50.042;14.432;2023-08-08T16:31:08;2.40;;;1.50;;
78716;SDS011;68045;50.042;14.432;2023-08-08T16:35:10;4.32;;;1.80;;
78716;SDS011;68045;50.042;14.432;2023-08-08T16:39:11;2.25;;;1.58;;
78716;SDS011;68045;50.042;14.432;2023-08-08T16:43:13;2.33;;;1.55;;
78716;SDS011;68045;50.042;14.432;2023-08-08T16:47:13;3.10;;;1.60;;
78716;SDS011;68045;50.042;14.432;2023-08-08T16:51:14;3.35;;;1.73;;
78716;SDS011;68045;50.042;14.432;2023-08-08T16:55:15;3.00;;;1.75;;
78716;SDS011;68045;50.042;14.432;2023-08-08T16:59:16;3.30;;;1.90;;
78716;SDS011;68045;50.042;14.432;2023-08-08T17:03:17;3.28;;;1.90;;
78716;SDS011;68045;50.042;14.432;2023-08-08T17:07:18;2.65;;;1.85;;
78716;SDS011;68045;50.042;14.432;2023-08-08T17:11:19;6.07;;;1.75;;
78716;SDS011;68045;50.042;14.432;2023-08-08T17:15:20;3.75;;;1.80;;
78716;SDS011;68045;50.042;14.432;2023-08-08T17:19:20;3.10;;;1.83;;
78716;SDS011;68045;50.042;14.432;2023-08-08T17:23:21;2.95;;;1.80;;
78716;SDS011;68045;50.042;14.432;2023-08-08T17:27:22;4.20;;;1.77;;
78716;SDS011;68045;50.042;14.432;2023-08-08T17:31:24;3.35;;;1.80;;
78716;SDS011;68045;50.042;14.432;2023-08-08T17:35:28;7.22;;;1.75;;
78716;SDS011;68045;50.042;14.432;2023-08-08T17:39:29;5.63;;;1.88;;
78716;SDS011;68045;50.042;14.432;2023-08-08T17:43:30;2.95;;;1.88;;
78716;SDS011;68045;50.042;14.432;2023-08-08T17:47:30;3.83;;;2.13;;
78716;SDS011;68045;50.042;14.432;2023-08-08T17:51:32;3.83;;;2.10;;
78716;SDS011;68045;50.042;14.432;2023-08-08T17:55:32;4.10;;;2.00;;
78716;SDS011;68045;50.042;14.432;2023-08-08T17:59:33;3.25;;;2.05;;
78716;SDS011;68045;50.042;14.432;2023-08-08T18:03:34;4.47;;;1.90;;
78716;SDS011;68045;50.042;14.432;2023-08-08T18:07:35;3.80;;;1.85;;
78716;SDS011;68045;50.042;14.432;2023-08-08T18:11:36;3.00;;;1.80;;
78716;SDS011;68045;50.042;14.432;2023-08-08T18:15:40;3.97;;;1.73;;
78716;SDS011;68045;50.042;14.432;2023-08-08T18:19:41;3.80;;;2.00;;
78716;SDS011;68045;50.042;14.432;2023-08-08T18:23:41;4.13;;;1.95;;
78716;SDS011;68045;50.042;14.432;2023-08-08T18:27:42;5.60;;;2.00;;
78716;SDS011;68045;50.042;14.432;2023-08-08T18:31:43;3.33;;;1.85;;
78716;SDS011;68045;50.042;14.432;2023-08-08T18:35:44;2.83;;;1.83;;
78716;SDS011;68045;50.042;14.432;2023-08-08T18:39:45;3.95;;;1.88;;
78716;SDS011;68045;50.042;14.432;2023-08-08T18:43:45;3.58;;;1.90;;
78716;SDS011;68045;50.042;14.432;2023-08-08T18:47:47;5.07;;;2.00;;
78716;SDS011;68045;50.042;14.432;2023-08-08T18:51:47;3.40;;;1.92;;
78716;SDS011;68045;50.042;14.432;2023-08-08T18:55:48;3.78;;;1.80;;
78716;SDS011;68045;50.042;14.432;2023-08-08T18:59:50;4.15;;;2.10;;
78716;SDS011;68045;50.042;14.432;2023-08-08T19:03:51;4.63;;;1.92;;
78716;SDS011;68045;50.042;14.432;2023-08-08T19:07:52;3.75;;;1.90;;
78716;SDS011;68045;50.042;14.432;2023-08-08T19:11:52;3.65;;;2.30;;
78716;SDS011;68045;50.042;14.432;2023-08-08T19:15:53;3.30;;;2.10;;
78716;SDS011;68045;50.042;14.432;2023-08-08T19:19:54;4.38;;;1.90;;
78716;SDS011;68045;50.042;14.432;2023-08-08T19:23:55;3.40;;;2.00;;
78716;SDS011;68045;50.042;14.432;2023-08-08T19:27:56;3.35;;;1.77;;
78716;SDS011;68045;50.042;14.432;2023-08-08T19:31:57;4.60;;;1.90;;
78716;SDS011;68045;50.042;14.432;2023-08-08T19:35:58;2.95;;;1.90;;
78716;SDS011;68045;50.042;14.432;2023-08-08T19:40:01;2.80;;;1.80;;
78716;SDS011;68045;50.042;14.432;2023-08-08T19:44:03;4.18;;;1.75;;
78716;SDS011;68045;50.042;14.432;2023-08-08T19:48:04;3.25;;;1.85;;
78716;SDS011;68045;50.042;14.432;2023-08-08T19:52:04;3.22;;;1.88;;
78716;SDS011;68045;50.042;14.432;2023-08-08T19:56:06;4.47;;;1.98;;
78716;SDS011;68045;50.042;14.432;2023-08-08T20:00:07;3.25;;;1.90;;
78716;SDS011;68045;50.042;14.432;2023-08-08T20:04:12;2.95;;;2.00;;
78716;SDS011;68045;50.042;14.432;2023-08-08T20:08:13;2.92;;;1.73;;
78716;SDS011;68045;50.042;14.432;2023-08-08T20:12:14;3.30;;;2.00;;
78716;SDS011;68045;50.042;14.432;2023-08-08T20:16:15;3.50;;;2.00;;
78716;SDS011;68045;50.042;14.432;2023-08-08T20:20:16;3.58;;;2.10;;
78716;SDS011;68045;50.042;14.432;2023-08-08T20:24:17;2.75;;;1.75;;
78716;SDS011;68045;50.042;14.432;2023-08-08T20:28:18;3.67;;;2.13;;
78716;SDS011;68045;50.042;14.432;2023-08-08T20:32:18;4.03;;;1.90;;
78716;SDS011;68045;50.042;14.432;2023-08-08T20:36:19;2.40;;;1.77;;
78716;SDS011;68045;50.042;14.432;2023-08-08T20:40:20;4.85;;;2.10;;
78716;SDS011;68045;50.042;14.432;2023-08-08T20:44:21;4.32;;;1.98;;
78716;SDS011;68045;50.042;14.432;2023-08-08T20:48:22;6.05;;;2.00;;
78716;SDS011;68045;50.042;14.432;2023-08-08T20:52:23;3.75;;;1.90;;
78716;SDS011;68045;50.042;14.432;2023-08-08T20:56:24;3.20;;;1.90;;
78716;SDS011;68045;50.042;14.432;2023-08-08T21:00:25;3.97;;;1.90;;
78716;SDS011;68045;50.042;14.432;2023-08-08T21:04:26;6.07;;;2.10;;
78716;SDS011;68045;50.042;14.432;2023-08-08T21:08:26;4.90;;;1.90;;
78716;SDS011;68045;50.042;14.432;2023-08-08T21:12:27;3.85;;;1.95;;
78716;SDS011;68045;50.042;14.432;2023-08-08T21:16:28;3.13;;;1.70;;
78716;SDS011;68045;50.042;14.432;2023-08-08T21:20:29;3.22;;;1.75;;
78716;SDS011;68045;50.042;14.432;2023-08-08T21:24:30;5.25;;;2.08;;
78716;SDS011;68045;50.042;14.432;2023-08-08T21:28:31;5.20;;;2.40;;
78716;SDS011;68045;50.042;14.432;2023-08-08T21:36:35;3.92;;;2.08;;
78716;SDS011;68045;50.042;14.432;2023-08-08T21:40:36;4.50;;;2.40;;
78716;SDS011;68045;50.042;14.432;2023-08-08T21:44:37;5.20;;;2.22;;
78716;SDS011;68045;50.042;14.432;2023-08-08T21:48:38;3.67;;;2.33;;
78716;SDS011;68045;50.042;14.432;2023-08-08T21:52:39;4.53;;;2.20;;
78716;SDS011;68045;50.042;14.432;2023-08-08T21:56:39;8.30;;;2.55;;
78716;SDS011;68045;50.042;14.432;2023-08-08T22:00:41;5.35;;;2.78;;
78716;SDS011;68045;50.042;14.432;2023-08-08T22:04:42;4.88;;;2.42;;
78716;SDS011;68045;50.042;14.432;2023-08-08T22:08:43;5.53;;;2.55;;
78716;SDS011;68045;50.042;14.432;2023-08-08T22:12:44;5.35;;;2.70;;
78716;SDS011;68045;50.042;14.432;2023-08-08T22:16:45;3.80;;;2.42;;
78716;SDS011;68045;50.042;14.432;2023-08-08T22:20:46;5.82;;;2.47;;
78716;SDS011;68045;50.042;14.432;2023-08-08T22:24:48;5.10;;;2.50;;
78716;SDS011;68045;50.042;14.432;2023-08-08T22:28:49;5.40;;;2.40;;
78716;SDS011;68045;50.042;14.432;2023-08-08T22:32:50;5.93;;;2.60;;
78716;SDS011;68045;50.042;14.432;2023-08-08T22:36:51;4.18;;;2.30;;
78716;SDS011;68045;50.042;14.432;2023-08-08T22:40:52;4.38;;;2.20;;
78716;SDS011;68045;50.042;14.432;2023-08-08T22:44:53;5.13;;;2.20;;
78716;SDS011;68045;50.042;14.432;2023-08-08T22:48:54;5.57;;;2.10;;
78716;SDS011;68045;50.042;14.432;2023-08-08T22:52:55;4.35;;;2.20;;
78716;SDS011;68045;50.042;14.432;2023-08-08T22:56:56;6.28;;;2.25;;
78716;SDS011;68045;50.042;14.432;2023-08-08T23:00:56;5.75;;;2.55;;
78716;SDS011;68045;50.042;14.432;2023-08-08T23:04:58;6.97;;;2.78;;
78716;SDS011;68045;50.042;14.432;2023-08-08T23:08:59;8.73;;;2.65;;
78716;SDS011;68045;50.042;14.432;2023-08-08T23:12:59;4.97;;;2.45;;
78716;SDS011;68045;50.042;14.432;2023-08-08T23:17:00;3.95;;;2.05;;
78716;SDS011;68045;50.042;14.432;2023-08-08T23:21:01;4.28;;;2.30;;
78716;SDS011;68045;50.042;14.432;2023-08-08T23:25:02;4.05;;;2.28;;
78716;SDS011;68045;50.042;14.432;2023-08-08T23:29:04;3.50;;;1.88;;
78716;SDS011;68045;50.042;14.432;2023-08-08T23:33:06;4.25;;;2.13;;
78716;SDS011;68045;50.042;14.432;2023-08-08T23:37:07;3.97;;;2.10;;
78716;SDS011;68045;50.042;14.432;2023-08-08T23:41:07;3.38;;;2.00;;
78716;SDS011;68045;50.042;14.432;2023-08-08T23:45:09;3.30;;;1.85;;
78716;SDS011;68045;50.042;14.432;2023-08-08T23:49:12;5.35;;;2.25;;
78716;SDS011;68045;50.042;14.432;2023-08-08T23:53:13;7.38;;;2.20;;
78716;SDS011;68045;50.042;14.432;2023-08-08T23:57:14;5.78;;;2.30;;
